createdAt,value
2018-12-21T00:00:57.785Z,95728.00
2018-12-21T00:03:27.072Z,95730.00
2018-12-21T00:05:56.184Z,95724.00
2018-12-21T00:08:25.325Z,95728.00
2018-12-21T00:10:55.715Z,95728.00
2018-12-21T00:13:24.929Z,95710.00
2018-12-21T00:15:54.103Z,95725.00
2018-12-21T00:18:23.279Z,95734.00
2018-12-21T00:20:52.420Z,95736.00
2018-12-21T00:26:03.293Z,95715.00
2018-12-21T00:28:32.454Z,95719.00
2018-12-21T00:31:06.974Z,95710.00
2018-12-21T00:33:41.487Z,95714.00
2018-12-21T00:36:15.818Z,95715.00
2018-12-21T00:38:50.241Z,95715.00
2018-12-21T00:41:18.665Z,95704.00
2018-12-21T00:46:41.161Z,95715.00
2018-12-21T00:51:50.744Z,95700.00
2018-12-21T00:54:19.985Z,95706.00
2018-12-21T00:56:49.187Z,95687.00
2018-12-21T00:59:18.380Z,95700.00
2018-12-21T01:01:47.642Z,95705.00
2018-12-21T01:04:18.019Z,95690.00
2018-12-21T01:06:47.336Z,95685.00
2018-12-21T01:11:56.257Z,95677.00
2018-12-21T01:14:25.535Z,95687.00
2018-12-21T01:16:56.189Z,95690.00
2018-12-21T01:22:05.573Z,95697.00
2018-12-21T01:24:34.686Z,95697.00
2018-12-21T01:27:03.876Z,95705.00
2018-12-21T01:29:33.181Z,95714.00
2018-12-21T01:32:02.349Z,95721.00
2018-12-21T01:34:31.556Z,95722.00
2018-12-21T01:39:40.045Z,95701.00
2018-12-21T01:42:10.440Z,95706.00
2018-12-21T01:44:40.411Z,95704.00
2018-12-21T01:47:10.324Z,95710.00
2018-12-21T01:49:40.364Z,95714.00
2018-12-21T01:54:49.614Z,95709.00
2018-12-21T01:57:18.802Z,95709.00
2018-12-21T01:59:47.947Z,95697.00
2018-12-21T02:02:18.170Z,95691.00
2018-12-21T02:04:47.457Z,95689.00
2018-12-21T02:07:17.320Z,95677.00
2018-12-21T02:09:47.738Z,95675.00
2018-12-21T02:12:18.173Z,95687.00
2018-12-21T02:14:47.301Z,95684.00
2018-12-21T02:17:16.534Z,95685.00
2018-12-21T02:19:45.660Z,95681.00
2018-12-21T02:22:14.992Z,95679.00
2018-12-21T02:27:22.053Z,95673.00
2018-12-21T02:29:51.263Z,95678.00
2018-12-21T02:35:01.225Z,95664.00
2018-12-21T02:40:09.817Z,95665.00
2018-12-21T02:42:39.035Z,95661.00
2018-12-21T02:45:09.154Z,95651.00
2018-12-21T02:50:18.585Z,95659.00
2018-12-21T02:52:47.954Z,95653.00
2018-12-21T02:55:17.957Z,95672.00
2018-12-21T02:57:47.112Z,95665.00
2018-12-21T03:00:16.399Z,95663.00
2018-12-21T03:02:45.681Z,95656.00
2018-12-21T03:05:15.192Z,95681.00
2018-12-21T03:07:44.489Z,95662.00
2018-12-21T03:10:13.694Z,95656.00
2018-12-21T03:12:42.856Z,95660.00
2018-12-21T03:15:12.100Z,95648.00
2018-12-21T03:17:41.499Z,95642.00
2018-12-21T03:22:50.592Z,95638.00
2018-12-21T03:25:19.896Z,95638.00
2018-12-21T03:27:49.055Z,95630.00
2018-12-21T03:30:19.147Z,95644.00
2018-12-21T03:32:48.254Z,95633.00
2018-12-21T03:35:18.058Z,95641.00
2018-12-21T03:37:47.269Z,95632.00
2018-12-21T03:40:16.732Z,95631.00
2018-12-21T03:42:46.044Z,95630.00
2018-12-21T03:47:54.519Z,95626.00
2018-12-21T03:53:05.328Z,95617.00
2018-12-21T03:55:34.466Z,95606.00
2018-12-21T03:58:03.688Z,95602.00
2018-12-21T04:00:32.915Z,95602.00
2018-12-21T04:03:02.104Z,95600.00
2018-12-21T04:05:31.401Z,95595.00
2018-12-21T04:08:00.633Z,95589.00
2018-12-21T04:10:29.834Z,95580.00
2018-12-21T04:12:58.990Z,95581.00
2018-12-21T04:15:28.149Z,95571.00
2018-12-21T04:17:57.250Z,95574.00
2018-12-21T04:20:26.438Z,95574.00
2018-12-21T04:22:57.257Z,95571.00
2018-12-21T04:25:26.711Z,95578.00
2018-12-21T04:27:55.986Z,95578.00
2018-12-21T04:30:25.194Z,95569.00
2018-12-21T04:32:54.367Z,95572.00
2018-12-21T04:35:23.583Z,95583.00
2018-12-21T04:37:52.789Z,95587.00
2018-12-21T04:40:22.099Z,95568.00
2018-12-21T04:42:51.197Z,95581.00
2018-12-21T04:45:20.353Z,95558.00
2018-12-21T04:47:49.486Z,95563.00
2018-12-21T04:52:57.825Z,95563.00
2018-12-21T04:55:28.094Z,95548.00
2018-12-21T04:57:57.340Z,95551.00
2018-12-21T05:00:26.717Z,95549.00
2018-12-21T05:02:55.895Z,95559.00
2018-12-21T05:05:25.106Z,95557.00
2018-12-21T05:07:54.183Z,95552.00
2018-12-21T05:10:23.380Z,95535.00
2018-12-21T05:12:52.669Z,95538.00
2018-12-21T05:15:21.974Z,95547.00
2018-12-21T05:17:51.158Z,95542.00
2018-12-21T05:20:20.422Z,95542.00
2018-12-21T05:22:52.415Z,95532.00
2018-12-21T05:25:20.680Z,95540.00
2018-12-21T05:27:50.951Z,95541.00
2018-12-21T05:30:20.229Z,95540.00
2018-12-21T05:32:49.354Z,95533.00
2018-12-21T05:35:18.643Z,95535.00
2018-12-21T05:37:47.831Z,95520.00
2018-12-21T05:40:17.952Z,95501.00
2018-12-21T05:42:47.228Z,95496.00
2018-12-21T05:45:16.580Z,95505.00
2018-12-21T05:47:45.859Z,95495.00
2018-12-21T05:50:15.124Z,95491.00
2018-12-21T05:52:44.380Z,95485.00
2018-12-21T05:57:51.978Z,95500.00
2018-12-21T06:00:21.237Z,95482.00
2018-12-21T06:02:50.441Z,95480.00
2018-12-21T06:05:19.795Z,95470.00
2018-12-21T06:07:49.070Z,95480.00
2018-12-21T06:12:56.927Z,95473.00
2018-12-21T06:15:26.210Z,95469.00
2018-12-21T06:17:55.427Z,95462.00
2018-12-21T06:23:09.423Z,95472.00
2018-12-21T06:25:35.011Z,95463.00
2018-12-21T06:28:04.428Z,95454.00
2018-12-21T06:30:34.845Z,95450.00
2018-12-21T06:33:04.127Z,95445.00
2018-12-21T06:35:35.515Z,95436.00
2018-12-21T06:38:04.905Z,95422.00
2018-12-21T06:40:33.953Z,95413.00
2018-12-21T06:43:03.272Z,95423.00
2018-12-21T06:45:32.841Z,95421.00
2018-12-21T06:48:02.012Z,95434.00
2018-12-21T06:53:17.721Z,95430.00
2018-12-21T06:55:40.801Z,95421.00
2018-12-21T06:58:09.962Z,95424.00
2018-12-21T07:03:20.941Z,95429.00
2018-12-21T07:08:31.281Z,95412.00
2018-12-21T07:11:00.488Z,95411.00
2018-12-21T07:13:29.744Z,95405.00
2018-12-21T07:15:58.967Z,95407.00
2018-12-21T07:18:28.922Z,95396.00
2018-12-21T07:20:58.063Z,95398.00
2018-12-21T07:23:27.603Z,95401.00
2018-12-21T07:25:56.916Z,95390.00
2018-12-21T07:28:27.196Z,95383.00
2018-12-21T07:30:56.412Z,95396.00
2018-12-21T07:33:25.692Z,95389.00
2018-12-21T07:35:55.094Z,95387.00
2018-12-21T07:38:25.658Z,95379.00
2018-12-21T07:40:54.894Z,95386.00
2018-12-21T07:43:24.052Z,95362.00
2018-12-21T07:45:53.306Z,95363.00
2018-12-21T07:51:00.749Z,95370.00
2018-12-21T07:53:35.816Z,95376.00
2018-12-21T07:56:01.025Z,95364.00
2018-12-21T07:58:30.276Z,95362.00
2018-12-21T08:00:59.615Z,95371.00
2018-12-21T08:03:28.836Z,95361.00
2018-12-21T08:05:58.040Z,95356.00
2018-12-21T08:08:27.236Z,95351.00
2018-12-21T08:10:57.977Z,95351.00
2018-12-21T08:16:05.789Z,95346.00
2018-12-21T08:18:35.198Z,95343.00
2018-12-21T08:21:04.502Z,95340.00
2018-12-21T08:23:33.665Z,95335.00
2018-12-21T08:26:02.881Z,95339.00
2018-12-21T08:28:32.115Z,95343.00
2018-12-21T08:33:41.662Z,95335.00
2018-12-21T08:36:10.876Z,95335.00
2018-12-21T08:38:40.048Z,95329.00
2018-12-21T08:41:10.433Z,95335.00
2018-12-21T08:43:39.894Z,95334.00
2018-12-21T08:46:09.153Z,95316.00
2018-12-21T08:51:16.792Z,95311.00
2018-12-21T08:53:52.475Z,95326.00
2018-12-21T08:56:18.056Z,95333.00
2018-12-21T08:58:48.732Z,95330.00
2018-12-21T09:01:18.008Z,95327.00
2018-12-21T09:03:47.096Z,95334.00
2018-12-21T09:06:18.542Z,95329.00
2018-12-21T09:08:47.662Z,95344.00
2018-12-21T09:11:17.887Z,95342.00
2018-12-21T09:13:48.144Z,95352.00
2018-12-21T09:16:18.104Z,95361.00
2018-12-21T09:18:47.358Z,95376.00
2018-12-21T09:21:17.876Z,95385.00
2018-12-21T09:23:48.926Z,95391.00
2018-12-21T09:26:18.903Z,95390.00
2018-12-21T09:28:48.104Z,95380.00
2018-12-21T09:31:17.204Z,95402.00
2018-12-21T09:33:47.202Z,95394.00
2018-12-21T09:36:18.397Z,95411.00
2018-12-21T09:38:47.562Z,95417.00
2018-12-21T09:43:56.479Z,95427.00
2018-12-21T09:46:25.738Z,95424.00
2018-12-21T09:48:54.915Z,95416.00
2018-12-21T09:54:09.690Z,95395.00
2018-12-21T09:56:33.564Z,95381.00
2018-12-21T09:59:02.856Z,95362.00
2018-12-21T10:01:32.201Z,95355.00
2018-12-21T10:04:01.501Z,95354.00
2018-12-21T10:06:30.893Z,95340.00
2018-12-21T10:09:00.090Z,95349.00
2018-12-21T10:11:29.386Z,95339.00
2018-12-21T10:13:58.564Z,95350.00
2018-12-21T10:16:28.015Z,95324.00
2018-12-21T10:18:57.263Z,95310.00
2018-12-21T10:21:26.464Z,95297.00
2018-12-21T10:23:55.656Z,95293.00
2018-12-21T10:26:24.824Z,95283.00
2018-12-21T10:28:54.129Z,95275.00
2018-12-21T10:31:23.316Z,95262.00
2018-12-21T10:33:52.537Z,95265.00
2018-12-21T10:36:21.637Z,95257.00
2018-12-21T10:38:50.812Z,95258.00
2018-12-21T10:41:19.973Z,95247.00
2018-12-21T10:43:49.274Z,95238.00
2018-12-21T10:46:19.929Z,95221.00
2018-12-21T10:48:49.097Z,95212.00
2018-12-21T10:51:19.241Z,95212.00
2018-12-21T10:56:26.980Z,95209.00
2018-12-21T10:58:56.197Z,95189.00
2018-12-21T11:04:04.807Z,95168.00
2018-12-21T11:09:13.288Z,95166.00
2018-12-21T11:11:43.024Z,95140.00
2018-12-21T11:14:12.257Z,95124.00
2018-12-21T11:16:41.418Z,95129.00
2018-12-21T11:19:10.613Z,95131.00
2018-12-21T11:21:39.949Z,95104.00
2018-12-21T11:24:09.149Z,95111.00
2018-12-21T11:26:38.349Z,95105.00
2018-12-21T11:29:07.688Z,95109.00
2018-12-21T11:31:36.888Z,95079.00
2018-12-21T11:36:46.700Z,95047.00
2018-12-21T11:39:15.906Z,95075.00
2018-12-21T11:41:45.144Z,95037.00
2018-12-21T11:44:14.346Z,95000.00
2018-12-21T11:46:43.668Z,95003.00
2018-12-21T11:49:12.905Z,94997.00
2018-12-21T11:54:20.344Z,95021.00
2018-12-21T11:56:49.562Z,94991.00
2018-12-21T12:01:58.996Z,95000.00
2018-12-21T12:04:28.185Z,95006.00
2018-12-21T12:06:57.340Z,94994.00
2018-12-21T12:09:26.640Z,95015.00
2018-12-21T12:11:55.768Z,94989.00
2018-12-21T12:14:25.776Z,95004.00
2018-12-21T12:16:55.108Z,94987.00
2018-12-21T12:19:24.180Z,94983.00
2018-12-21T12:21:53.293Z,94970.00
2018-12-21T12:24:22.664Z,94972.00
2018-12-21T12:26:51.878Z,94945.00
2018-12-21T12:29:21.107Z,94953.00
2018-12-21T12:31:56.432Z,94942.00
2018-12-21T12:34:25.535Z,94951.00
2018-12-21T12:36:57.988Z,94955.00
2018-12-21T12:39:27.104Z,94951.00
2018-12-21T12:41:56.156Z,94950.00
2018-12-21T12:44:30.998Z,94934.00
2018-12-21T12:47:00.142Z,94921.00
2018-12-21T12:49:29.353Z,94932.00
2018-12-21T12:51:58.465Z,94915.00
2018-12-21T12:54:27.520Z,94903.00
2018-12-21T12:56:56.677Z,94896.00
2018-12-21T12:59:25.696Z,94896.00
2018-12-21T13:01:54.849Z,94896.00
2018-12-21T13:07:03.267Z,94882.00
2018-12-21T13:09:32.484Z,94888.00
2018-12-21T13:12:01.556Z,94881.00
2018-12-21T13:14:30.821Z,94886.00
2018-12-21T13:16:59.992Z,94895.00
2018-12-21T13:19:29.213Z,94884.00
2018-12-21T13:21:58.469Z,94892.00
2018-12-21T13:24:27.532Z,94896.00
2018-12-21T13:26:56.711Z,94897.00
2018-12-21T13:29:25.910Z,94879.00
2018-12-21T13:31:55.037Z,94883.00
2018-12-21T13:34:24.136Z,94898.00
2018-12-21T13:36:53.372Z,94880.00
2018-12-21T13:42:01.705Z,94879.00
2018-12-21T13:44:30.755Z,94882.00
2018-12-21T13:47:00.057Z,94856.00
2018-12-21T13:49:29.220Z,94879.00
2018-12-21T13:54:36.003Z,94883.00
2018-12-21T13:57:05.256Z,94908.00
2018-12-21T13:59:34.503Z,94887.00
2018-12-21T14:02:03.759Z,94884.00
2018-12-21T14:07:12.419Z,94900.00
2018-12-21T14:09:41.483Z,94887.00
2018-12-21T14:12:10.676Z,94897.00
2018-12-21T14:14:39.911Z,94895.00
2018-12-21T14:17:10.535Z,94894.00
2018-12-21T14:19:40.922Z,94882.00
2018-12-21T14:22:10.093Z,94892.00
2018-12-21T14:24:39.180Z,94888.00
2018-12-21T14:27:09.164Z,94890.00
2018-12-21T14:29:38.954Z,94898.00
2018-12-21T14:32:08.254Z,94904.00
2018-12-21T14:34:37.352Z,94899.00
2018-12-21T14:37:07.854Z,94891.00
2018-12-21T14:39:36.953Z,94896.00
2018-12-21T14:42:06.210Z,94877.00
2018-12-21T14:44:35.362Z,94902.00
2018-12-21T14:47:04.513Z,94918.00
2018-12-21T14:52:14.976Z,94885.00
2018-12-21T14:54:44.276Z,94893.00
2018-12-21T14:57:13.446Z,94912.00
2018-12-21T14:59:42.718Z,94925.00
2018-12-21T15:02:11.923Z,94900.00
2018-12-21T15:04:40.976Z,94927.00
2018-12-21T15:07:10.226Z,94916.00
2018-12-21T15:09:39.496Z,94913.00
2018-12-21T15:12:08.708Z,94933.00
2018-12-21T15:14:37.799Z,94921.00
2018-12-21T15:19:46.075Z,94914.00
2018-12-21T15:22:16.579Z,94923.00
2018-12-21T15:24:45.727Z,94929.00
2018-12-21T15:27:14.883Z,94914.00
2018-12-21T15:29:44.051Z,94916.00
2018-12-21T15:32:13.250Z,94900.00
2018-12-21T15:34:42.506Z,94935.00
2018-12-21T15:37:11.657Z,94921.00
2018-12-21T15:39:40.817Z,94934.00
2018-12-21T15:42:10.065Z,94940.00
2018-12-21T15:44:39.152Z,94964.00
2018-12-21T15:49:46.464Z,94946.00
2018-12-21T15:52:15.625Z,94934.00
2018-12-21T15:54:44.797Z,94949.00
2018-12-21T15:57:14.231Z,94938.00
2018-12-21T15:59:43.413Z,94939.00
2018-12-21T16:02:12.887Z,94933.00
2018-12-21T16:07:22.585Z,94927.00
2018-12-21T16:09:52.606Z,94936.00
2018-12-21T16:12:22.563Z,94951.00
2018-12-21T16:14:52.762Z,94957.00
2018-12-21T16:17:22.900Z,94956.00
2018-12-21T16:19:52.777Z,94964.00
2018-12-21T16:22:22.814Z,94975.00
2018-12-21T16:24:52.909Z,94958.00
2018-12-21T16:27:22.820Z,94963.00
2018-12-21T16:29:52.999Z,94984.00
2018-12-21T16:32:23.470Z,94968.00
2018-12-21T16:34:53.642Z,94958.00
2018-12-21T16:37:22.996Z,94978.00
2018-12-21T16:39:53.013Z,94992.00
2018-12-21T16:42:23.010Z,94989.00
2018-12-21T16:44:53.076Z,94985.00
2018-12-21T16:50:02.312Z,94999.00
2018-12-21T16:52:32.697Z,95007.00
2018-12-21T16:55:01.956Z,95002.00
2018-12-21T16:57:31.088Z,94995.00
2018-12-21T17:00:00.875Z,94996.00
2018-12-21T17:02:30.021Z,94993.00
2018-12-21T17:07:38.562Z,95003.00
2018-12-21T17:10:24.356Z,94980.00
2018-12-21T17:15:32.133Z,94988.00
2018-12-21T17:18:02.140Z,94986.00
2018-12-21T17:20:31.271Z,95003.00
2018-12-21T17:23:00.853Z,94982.00
2018-12-21T17:25:30.822Z,95014.00
2018-12-21T17:27:59.955Z,94994.00
2018-12-21T17:30:29.145Z,95012.00
2018-12-21T17:32:58.414Z,95023.00
2018-12-21T17:35:27.565Z,95025.00
2018-12-21T17:37:56.689Z,95026.00
2018-12-21T17:40:25.917Z,95011.00
2018-12-21T17:42:55.087Z,95010.00
2018-12-21T17:45:24.196Z,95026.00
2018-12-21T17:47:54.082Z,95020.00
2018-12-21T17:50:24.113Z,95017.00
2018-12-21T17:52:54.180Z,95008.00
2018-12-21T17:55:25.551Z,95031.00
2018-12-21T17:57:54.864Z,95048.00
2018-12-21T18:03:02.447Z,95055.00
2018-12-21T18:05:31.710Z,95033.00
2018-12-21T18:08:00.977Z,95021.00
2018-12-21T18:10:30.327Z,95034.00
2018-12-21T18:12:59.600Z,95023.00
2018-12-21T18:15:28.721Z,95013.00
2018-12-21T18:17:57.997Z,95000.00
2018-12-21T18:20:27.265Z,95042.00
2018-12-21T18:22:56.444Z,95016.00
2018-12-21T18:25:28.993Z,95030.00
2018-12-21T18:28:10.478Z,95029.00
2018-12-21T18:30:40.900Z,95034.00
2018-12-21T18:33:12.723Z,95040.00
2018-12-21T18:35:42.021Z,95028.00
2018-12-21T18:38:19.739Z,95039.00
2018-12-21T18:40:49.012Z,95004.00
2018-12-21T18:43:18.168Z,95029.00
2018-12-21T18:45:47.409Z,95038.00
2018-12-21T18:48:16.531Z,95025.00
2018-12-21T18:53:23.956Z,95028.00
2018-12-21T18:55:54.152Z,95040.00
2018-12-21T18:58:23.608Z,95056.00
2018-12-21T19:00:52.802Z,95035.00
2018-12-21T19:03:22.029Z,95039.00
2018-12-21T19:05:51.208Z,95039.00
2018-12-21T19:08:20.424Z,95034.00
2018-12-21T19:10:49.584Z,95047.00
2018-12-21T19:13:18.759Z,95041.00
2018-12-21T19:15:47.989Z,95036.00
2018-12-21T19:18:18.036Z,95044.00
2018-12-21T19:20:47.108Z,95034.00
2018-12-21T19:23:17.518Z,95044.00
2018-12-21T19:25:46.646Z,95032.00
2018-12-21T19:28:15.847Z,95032.00
2018-12-21T19:30:45.061Z,95041.00
2018-12-21T19:33:14.240Z,95030.00
2018-12-21T19:35:43.508Z,95027.00
2018-12-21T19:38:13.023Z,95054.00
2018-12-21T19:40:42.200Z,95073.00
2018-12-21T19:43:11.420Z,95054.00
2018-12-21T19:45:40.609Z,95055.00
2018-12-21T19:48:09.756Z,95044.00
2018-12-21T19:50:38.888Z,95073.00
2018-12-21T19:53:08.038Z,95066.00
2018-12-21T19:57:53.540Z,95059.00
2018-12-21T20:00:22.631Z,95067.00
2018-12-21T20:02:51.783Z,95038.00
2018-12-21T20:05:20.966Z,95028.00
2018-12-21T20:07:50.090Z,95038.00
2018-12-21T20:10:19.260Z,95012.00
2018-12-21T20:12:48.522Z,95058.00
2018-12-21T20:17:58.383Z,95060.00
2018-12-21T20:20:27.574Z,95034.00
2018-12-21T20:22:56.758Z,95063.00
2018-12-21T20:25:27.453Z,95063.00
2018-12-21T20:27:56.684Z,95087.00
2018-12-21T20:30:26.652Z,95058.00
2018-12-21T20:32:56.979Z,95051.00
2018-12-21T20:35:26.952Z,95062.00
2018-12-21T20:37:57.068Z,95048.00
2018-12-21T20:40:27.085Z,95052.00
2018-12-21T20:42:56.918Z,95061.00
2018-12-21T20:45:27.027Z,95058.00
2018-12-21T20:50:35.204Z,95052.00
2018-12-21T20:53:04.449Z,95076.00
2018-12-21T20:58:27.618Z,95068.00
2018-12-21T21:00:57.332Z,95040.00
2018-12-21T21:03:27.430Z,95072.00
2018-12-21T21:05:57.382Z,95075.00
2018-12-21T21:08:27.287Z,95067.00
2018-12-21T21:10:57.495Z,95053.00
2018-12-21T21:13:27.364Z,95070.00
2018-12-21T21:15:57.509Z,95044.00
2018-12-21T21:18:28.647Z,95056.00
2018-12-21T21:20:57.833Z,95062.00
2018-12-21T21:23:27.521Z,95041.00
2018-12-21T21:25:57.517Z,95071.00
2018-12-21T21:28:27.842Z,95070.00
2018-12-21T21:30:57.739Z,95065.00
2018-12-21T21:33:27.829Z,95075.00
2018-12-21T21:35:57.797Z,95066.00
2018-12-21T21:38:28.483Z,95049.00
2018-12-21T21:40:57.924Z,95057.00
2018-12-21T21:43:28.006Z,95062.00
2018-12-21T21:45:58.053Z,95066.00
2018-12-21T21:48:28.113Z,95065.00
2018-12-21T21:53:35.804Z,95062.00
2018-12-21T21:56:05.088Z,95054.00
2018-12-21T21:58:34.250Z,95073.00
2018-12-21T22:01:03.540Z,95062.00
2018-12-21T22:03:32.589Z,95047.00
2018-12-21T22:06:01.889Z,95059.00
2018-12-21T22:08:31.072Z,95055.00
2018-12-21T22:11:01.979Z,95054.00
2018-12-21T22:13:31.505Z,95053.00
2018-12-21T22:16:00.764Z,95056.00
2018-12-21T22:18:29.935Z,95052.00
2018-12-21T22:20:59.178Z,95054.00
2018-12-21T22:23:28.524Z,95043.00
2018-12-21T22:25:58.582Z,95036.00
2018-12-21T22:31:08.089Z,95058.00
2018-12-21T22:33:37.426Z,95035.00
2018-12-21T22:36:06.634Z,95038.00
2018-12-21T22:38:35.862Z,95022.00
2018-12-21T22:41:05.111Z,95043.00
2018-12-21T22:43:34.210Z,95034.00
2018-12-21T22:46:03.693Z,95030.00
2018-12-21T22:48:32.870Z,95019.00
2018-12-21T22:53:40.117Z,95030.00
2018-12-21T22:56:09.257Z,95026.00
2018-12-21T22:58:38.406Z,95026.00
2018-12-21T23:01:08.219Z,95041.00
2018-12-21T23:03:37.401Z,95019.00
2018-12-21T23:06:06.668Z,95019.00
2018-12-21T23:11:15.064Z,95046.00
2018-12-21T23:13:44.339Z,95007.00
2018-12-21T23:16:13.626Z,95005.00
2018-12-21T23:18:42.945Z,95032.00
2018-12-21T23:21:12.283Z,95018.00
2018-12-21T23:23:41.420Z,95031.00
2018-12-21T23:26:10.661Z,95003.00
2018-12-21T23:28:39.832Z,95005.00
2018-12-21T23:31:10.290Z,95019.00
2018-12-21T23:33:39.377Z,95000.00
2018-12-21T23:38:47.649Z,95024.00
2018-12-21T23:41:17.938Z,95019.00
2018-12-21T23:43:47.130Z,95017.00
2018-12-21T23:46:16.297Z,95011.00
2018-12-21T23:48:45.622Z,95032.00
2018-12-21T23:51:14.834Z,95024.00
2018-12-21T23:53:43.984Z,95035.00
2018-12-21T23:58:51.743Z,95041.00
